Latest Coastal Weather Observations for St Helens

IDT60701

Issued at 8:02 pm EDT Wednesday 10 February 2016 (issued every 10 minutes, with the page automatically refreshed every 10 minutes)

About coastal observations | Map of coastal stations | Coastal observations for TAS | Marine services | Other Formats
Station Details ID: 092120 Name: ST HELENS AERODROME Lat: -41.34 Lon: 148.28 Height: 48.0 m
Data from the previous 72 hours. | See also: Recent months at St Helens
Date/Time
EDT
Temp

°C
Wind Pressure Rain
since 9am
mm
Weather Cloud Vis
km
Sea
Height
m
Swell
Dir
 
Speed
knots
Gust
knots
hPa Trend Height
m
Period
s
Dir
10/08:00pm 19.4 S 5 9 1011.4 - 0.0 - Partly cloudy 10 - - - -
10/07:30pm 20.1 SSE 7 11 1011.1 - 0.0 - Partly cloudy 10 - - - -
10/07:00pm 20.6 SSE 8 11 1010.7 - 0.0 - Partly cloudy 10 - - - -
10/06:30pm 21.0 SE 6 9 1010.6 - 0.0 - Partly cloudy 10 - - - -
10/06:00pm 21.4 ESE 6 10 1010.2 - 0.0 - Cloudy 9 - - - -
10/05:30pm 21.7 ENE 9 13 1010.6 - 0.0 - Cloudy 10 - - - -
10/05:00pm 22.0 ENE 9 13 1010.6 - 0.0 - Partly cloudy 10 - - - -
10/04:30pm 22.6 NE 8 11 1010.6 - 0.0 - Partly cloudy 10 - - - -
10/04:00pm 22.3 NE 9 13 1010.7 - 0.0 - Partly cloudy 10 - - - -
10/03:30pm 22.2 ENE 11 15 1011.0 - 0.0 - Partly cloudy 10 - - - -
10/03:00pm 21.9 ENE 10 14 1011.1 - 0.0 - Cloudy 10 - - - -
10/02:30pm 23.1 ENE 9 14 1011.4 - 0.0 - Partly cloudy 10 - - - -
10/02:00pm 22.9 ENE 8 12 1011.8 - 0.0 - Partly cloudy 10 - - - -
10/01:30pm 20.9 ESE 6 11 1012.0 - 0.0 - Cloudy 10 - - - -
10/01:00pm 22.0 ESE 5 9 1012.5 - 0.0 - Partly cloudy 10 - - - -
10/12:30pm 22.0 E 6 11 1012.5 - 0.0 - Partly cloudy 10 - - - -
10/12:00pm 21.5 ESE 4 8 1012.9 - 0.0 - Cloudy 10 - - - -
10/11:30am 21.1 SSE 5 8 1013.4 - 0.0 - Partly cloudy 10 - - - -
10/11:00am 20.9 S 3 7 1013.5 - 0.0 - Partly cloudy 10 - - - -
10/10:30am 20.0 NW 1 3 1013.6 - 0.0 - Cloudy 10 - - - -
10/10:00am 19.7 WNW 3 6 1013.5 - 0.0 - Partly cloudy 10 - - - -
10/09:30am 18.0 NW 4 4 1013.6 - 0.0 - Cloudy 10 - - - -
10/09:00am 17.2 NW 5 6 1013.1 - 0.2 Smoke Mostly cloudy 7 - - - -
10/08:30am 15.7 NW 6 8 1013.3 - 0.2 - Cloudy 10 - - - -
10/08:00am 15.4 NNW 6 7 1013.2 - 0.2 - Cloudy 10 - - - -
10/07:30am 14.1 NW 5 7 1013.2 - 0.2 - Cloudy 10 - - - -
10/07:00am 13.2 NNW 7 8 1013.1 - 0.2 - Partly cloudy 10 - - - -
10/06:30am 13.3 NW 6 7 1013.1 - 0.2 - Partly cloudy 10 - - - -
10/06:00am 13.3 NNW 7 9 1012.7 - 0.2 - - 10 - - - -
10/05:30am 15.1 NW 5 7 1012.9 - 0.2 - - 10 - - - -
10/05:00am 14.6 NNW 4 6 1013.2 - 0.2 - - 10 - - - -
10/04:30am 15.2 W 4 6 1013.2 - 0.2 - - 10 - - - -
10/04:00am 14.7 WNW 4 5 1013.1 - 0.2 - - 10 - - - -
10/03:30am 15.6 NNW 2 6 1013.3 - 0.2 - - 10 - - - -
10/03:00am 15.7 NW 3 6 1013.3 - 0.2 - - 10 - - - -
10/02:30am 15.9 NW 1 4 1013.6 - 0.2 - Partly cloudy 10 - - - -
10/02:00am 16.9 N 4 7 1013.9 - 0.2 - Partly cloudy 10 - - - -
10/01:30am 16.9 NNW 4 5 1014.2 - 0.2 - - 10 - - - -
10/01:00am 17.2 WNW 3 8 1014.5 - 0.2 - - 10 - - - -
10/12:30am 17.5 NW 5 8 1014.8 - 0.2 - - 10 - - - -
10/12:00am 18.0 NW 5 7 1014.8 - 0.2 - - 10 - - - -
 
Date/Time
EDT
Temp

°C
Wind Pressure Rain
since 9am
mm
Weather Cloud Vis
km
Sea
Height
m
Swell
Dir
 
Speed
knots
Gust
knots
hPa Trend Height
m
Period
s
Dir
09/11:30pm 18.4 NW 5 8 1015.4 - 0.2 - - 10 - - - -
09/11:00pm 19.2 NNW 6 11 1015.8 - 0.2 - - 10 - - - -
09/10:30pm 19.8 N 9 14 1016.0 - 0.2 - - 10 - - - -
09/10:00pm 19.8 N 8 12 1016.1 - 0.2 - - 10 - - - -
09/09:30pm 20.0 NNW 8 13 1016.2 - 0.2 - - 10 - - - -
09/09:00pm 20.4 NNW 8 12 1016.0 - 0.2 - - 10 - - - -
09/08:30pm 20.9 NW 8 14 1016.2 - 0.2 - - 10 - - - -
09/08:00pm 21.6 NW 9 15 1016.3 - 0.2 - - 10 - - - -
09/07:30pm 22.5 NNW 10 16 1016.2 - 0.2 - - 10 - - - -
09/07:00pm 22.8 NNW 13 22 1016.1 - 0.2 - - 10 - - - -
09/06:30pm 23.4 NNW 12 21 1016.1 - 0.2 - - 10 - - - -
09/06:00pm 24.5 NNW 11 19 1016.1 - 0.2 - - 10 - - - -
09/05:30pm 24.4 N 11 17 1016.3 - 0.2 - Partly cloudy 10 - - - -
09/05:00pm 23.7 N 13 19 1016.6 - 0.2 - Partly cloudy 10 - - - -
09/04:30pm 22.9 N 13 19 1017.0 - 0.2 - Partly cloudy 10 - - - -
09/04:00pm 22.3 N 13 22 1017.5 - 0.2 - Partly cloudy 10 - - - -
09/03:30pm 21.8 NNE 11 18 1018.1 - 0.2 - Partly cloudy 10 - - - -
09/03:00pm 23.0 NNE 9 14 1018.6 - 0.2 - Cloudy 10 - - - -
09/02:30pm 22.5 N 9 13 1019.1 - 0.2 - Partly cloudy 10 - - - -
09/02:00pm 22.7 N 10 15 1019.4 - 0.2 - Partly cloudy 10 - - - -
09/01:30pm 22.3 N 10 14 1019.9 - 0.2 - Partly cloudy 10 - - - -
09/01:00pm 22.1 NNE 7 11 1020.4 - 0.2 - Partly cloudy 10 - - - -
09/12:30pm 21.1 NE 6 12 1020.8 - 0.2 - Partly cloudy 10 - - - -
09/12:00pm 20.0 NNE 5 8 1021.3 - 0.2 - Cloudy 10 - - - -
09/11:30am 20.1 NNE 8 11 1021.5 - 0.2 - Cloudy 10 - - - -
09/11:00am 19.6 N 3 7 1021.8 - 0.2 - Cloudy 10 - - - -
09/10:30am 19.3 CALM 0 0 1022.0 - 0.2 - Cloudy 10 - - - -
09/10:00am 18.4 CALM 0 0 1022.0 - 0.2 - Cloudy 10 - - - -
09/09:30am 18.5 CALM 0 0 1022.0 - 0.0 - Cloudy 8 - - - -
09/09:00am 18.4 CALM 0 0 1022.0 - 2.8 Drizzle Mostly cloudy 15 - - - -
09/08:30am 18.3 CALM 0 0 1022.0 - 2.8 - Cloudy 10 - - - -
09/08:00am 17.9 N 4 7 1022.0 - 2.8 - Cloudy 10 - - - -
09/07:30am 17.9 CALM 0 0 1021.7 - 2.8 - Cloudy 10 - - - -
09/07:00am 18.3 CALM 0 3 1021.5 - 2.8 - Partly cloudy 10 - - - -
09/06:30am 18.2 CALM 0 0 1021.3 - 2.8 - Cloudy 10 - - - -
09/06:00am 18.2 CALM 0 2 1020.9 - 2.8 - Cloudy 10 - - - -
09/05:30am 18.3 NW 3 6 1020.7 - 2.8 - Cloudy 10 - - - -
09/05:00am 18.2 NE 3 5 1020.6 - 2.8 - Cloudy 10 - - - -
09/04:30am 18.3 NNE 5 8 1020.6 - 2.8 - Cloudy 10 - - - -
09/04:00am 17.7 E 4 6 1020.5 - 2.8 - Cloudy 10 - - - -
09/03:30am 17.4 CALM 0 0 1020.6 - 2.8 - Cloudy 10 - - - -
09/03:00am 17.6 CALM 0 0 1020.5 - 2.8 - Mostly cloudy 10 - - - -
09/02:30am 17.3 CALM 0 3 1020.7 - 2.8 - Cloudy 8 - - - -
09/02:18am 17.4 SE 3 7 1020.7 - 2.8 - Partly cloudy 8 - - - -
09/02:00am 17.5 S 4 5 1020.8 - 2.8 - Cloudy 3 - - - -
09/01:41am 17.6 SSE 3 5 1020.9 - 2.6 - Cloudy 5 - - - -
09/01:30am 17.7 SSE 3 4 1020.9 - 2.6 - Cloudy 6 - - - -
09/01:29am 17.7 SSE 3 4 1020.9 - 2.6 - Cloudy 6 - - - -
09/01:19am 17.8 CALM 0 0 1020.9 - 2.6 - Cloudy 5 - - - -
09/01:00am 18.0 SE 3 5 1020.9 - 2.4 - Cloudy 6 - - - -
09/12:30am 18.2 E 4 8 1020.8 - 2.4 - Cloudy 10 - - - -
09/12:00am 18.1 ESE 3 5 1020.8 - 2.4 - Cloudy 10 - - - -
 
Date/Time
EDT
Temp

°C
Wind Pressure Rain
since 9am
mm
Weather Cloud Vis
km
Sea
Height
m
Swell
Dir
 
Speed
knots
Gust
knots
hPa Trend Height
m
Period
s
Dir
08/11:30pm 18.2 SE 4 7 1021.2 - 2.4 - Cloudy 10 - - - -
08/11:00pm 18.3 SE 4 6 1021.1 - 2.4 - Cloudy 10 - - - -
08/10:30pm 18.4 SSE 3 5 1021.1 - 2.2 - Cloudy 6 - - - -
08/10:17pm 18.5 E 3 5 1021.0 - 2.2 - Cloudy 5 - - - -
08/10:00pm 18.6 ESE 3 6 1020.8 - 1.8 - Cloudy 7 - - - -
08/09:30pm 18.8 SE 1 4 1020.5 - 0.8 - Cloudy 10 - - - -
08/09:06pm 19.2 E 2 4 1020.2 - 0.6 - Cloudy 9 - - - -
08/09:00pm 19.2 E 1 4 1020.1 - 0.4 - Mostly cloudy 10 - - - -
08/08:30pm 19.8 ESE 4 8 1019.6 - 0.0 - Cloudy 10 - - - -
08/08:00pm 20.9 E 4 7 1019.3 - 0.0 - Partly cloudy 10 - - - -
08/07:30pm 21.1 E 4 6 1018.9 - 0.0 - Partly cloudy 10 - - - -
08/07:00pm 21.2 E 5 7 1018.5 - 0.0 - Cloudy 10 - - - -
08/06:30pm 21.5 ENE 6 8 1018.2 - 0.0 - Cloudy 10 - - - -
08/06:00pm 21.9 ENE 6 10 1017.9 - 0.0 - Partly cloudy 10 - - - -
08/05:30pm 22.6 NE 7 11 1018.0 - 0.0 - Partly cloudy 10 - - - -
08/05:00pm 22.7 NE 8 13 1018.0 - 0.0 - Partly cloudy 10 - - - -
08/04:30pm 23.0 ENE 8 12 1018.0 - 0.0 - - 10 - - - -
08/04:00pm 23.1 ENE 9 13 1018.0 - 0.0 - - 10 - - - -
08/03:30pm 23.1 ENE 9 15 1017.9 - 0.0 - - 10 - - - -
08/03:00pm 23.1 E 8 13 1017.9 - 0.0 - - 10 - - - -
08/02:30pm 23.2 E 9 15 1017.9 - 0.0 - Partly cloudy 10 - - - -
08/02:00pm 23.2 ENE 11 14 1017.9 - 0.0 - - 10 - - - -
08/01:30pm 23.9 ENE 11 16 1017.9 - 0.0 - - 10 - - - -
08/01:00pm 23.9 ENE 11 15 1017.8 - 0.0 - - 10 - - - -
08/12:30pm 24.3 ENE 10 13 1017.9 - 0.0 - - 10 - - - -
08/12:00pm 23.8 ENE 9 11 1018.0 - 0.0 - Mostly clear 10 - - - -
08/11:30am 23.7 ENE 8 13 1018.1 - 0.0 - Partly cloudy 10 - - - -
08/11:00am 23.5 ENE 8 11 1018.3 - 0.0 - Partly cloudy 10 - - - -
08/10:30am 23.6 E 5 10 1018.1 - 0.0 - Partly cloudy 10 - - - -
08/10:00am 22.2 NNW 3 4 1018.1 - 0.0 - Partly cloudy 10 - - - -
08/09:30am 20.2 CALM 0 0 1018.2 - 0.0 - - 10 - - - -
08/09:00am 18.8 N 3 5 1018.0 - 0.0 Haze Partly cloudy 20 - - - -
08/08:30am 17.4 N 4 6 1018.2 - 0.0 - Partly cloudy 10 - - - -
08/08:00am 16.6 NNW 6 7 1018.0 - 0.0 - Partly cloudy 10 - - - -
08/07:30am 15.6 NW 5 6 1017.9 - 0.0 - - 10 - - - -
08/07:00am 15.2 NNW 4 6 1017.8 - 0.0 - - 10 - - - -
08/06:30am 14.8 NNW 6 7 1017.5 - 0.0 - - 10 - - - -
08/06:00am 15.2 N 6 7 1017.2 - 0.0 - - 10 - - - -
08/05:30am 15.2 NNW 5 6 1017.2 - 0.0 - - 10 - - - -
08/05:00am 15.4 NNW 5 6 1017.2 - 0.0 - - 10 - - - -
08/04:30am 15.7 NNW 4 6 1017.1 - 0.0 - - 10 - - - -
08/04:00am 16.2 NW 4 6 1017.2 - 0.0 - - 10 - - - -
08/03:30am 16.3 NW 5 7 1017.1 - 0.0 - - 10 - - - -
08/03:00am 16.1 NW 4 6 1017.2 - 0.0 - - 10 - - - -
08/02:30am 16.8 NNW 2 5 1017.6 - 0.0 - - 10 - - - -
08/02:00am 16.8 NW 3 4 1017.6 - 0.0 - - 10 - - - -
08/01:30am 17.1 NNW 2 4 1017.6 - 0.0 - - 10 - - - -
08/01:00am 17.5 NW 3 5 1017.7 - 0.0 - - 10 - - - -
08/12:30am 17.7 W 3 7 1017.9 - 0.0 - - 10 - - - -
08/12:00am 17.8 W 3 6 1017.6 - 0.0 - - 10 - - - -
 
Date/Time
EDT
Temp

°C
Wind Pressure Rain
since 9am
mm
Weather Cloud Vis
km
Sea
Height
m
Swell
Dir
 
Speed
knots
Gust
knots
hPa Trend Height
m
Period
s
Dir
07/11:30pm 18.1 N 4 6 1017.8 - 0.0 - - 10 - - - -
07/11:00pm 18.7 NNW 4 5 1018.0 - 0.0 - - 10 - - - -
07/10:30pm 19.0 N 6 9 1018.2 - 0.0 - - 10 - - - -
07/10:00pm 19.3 N 6 9 1018.4 - 0.0 - - 10 - - - -
07/09:30pm 19.5 N 5 9 1018.2 - 0.0 - - 10 - - - -
07/09:00pm 19.7 N 7 12 1017.7 - 0.0 - - 10 - - - -
07/08:30pm 19.8 NNE 9 14 1017.3 - 0.0 - - 10 - - - -

Other Formats:

Comma delimited format used in spreadsheet applications
http://www.bom.gov.au/fwo/IDT60701/IDT60701.95981.axf

JavaScript Object Notation format (JSON) in row-major order
http://www.bom.gov.au/fwo/IDT60701/IDT60701.95981.json